首页
METAR-TAF:

METAR-TAF

机场 :

Batajnica, 塞尔维亚

纬度: 44-56-07N, 经度: 020-15-27E, 海拔: 86米

当前天气观测

该预报发布于23分钟前的00:00 UTC
风速5节,风向西转西南,在西南西之间变化
温度 10°C
湿度 87%
气压 1015 hPa
能见度10公里或以上
1500米以下无云,无积雨云

METAR: LYBT 010000Z 24005KT 220V280 CAVOK 10/08 Q1015 NOSIG

时间: 02:23 (00:23 UTC)

预报

该预报发布于1小时和23分钟前的23:00 UTC
预报有效从01日的 00点(UTC)到 01日的 24点(UTC)
风速6节,风向西南
能见度10公里或以上
多云层高于3300英尺
短暂存在
从 01日的 02点(UTC)到 01日的 11点(UTC)
能見度: 4000
多云层高于1000英尺
多云层高于2700英尺
(小) 雨, 轻雾
短暂存在
从 01日的 13点(UTC)到 01日的 17点(UTC)
能見度: 3000
散云层高于2500英尺, 塔状积云.
散云层高于3000英尺
阵雨

TAF: LYBT 312300Z 0100/0124 23006KT 9999 BKN033 TX19/0103Z TN07/0102Z TEMPO 0102/0111 4000 - RA BR BKN010 BKN027 TEMPO 0113/0117 3000 SHRA SCT025TCU SCT030

超过4000个机场的气象观测和天气预报(METAR&TAF报告)。

可查询的气象台以黄色和红色小点在地图上表示。

将鼠标移到小点上方,可查看气象台名称。

然后点击查看天气观测和预报。

如需切换地图:点击带黑十字的绿色按钮放大地图;点击带横线的绿色按钮缩小地图;或者点击绿色箭头查看邻近地区的地图。


METAR-TAF: